Time;durP1;ratioP1;P1;durP2;ratioP2;P2;SDS_P1;SDS_P2;PMS_P1;PMS_P2;Temp;Humidity;BMP_temperature;BMP_pressure;BME280_temperature;BME280_humidity;BME280_pressure;Samples;Min_cycle;Max_cycle;Signal;HPM_P1;HPM_P2
2021/10/20 00:01:28;;;;;;;235.80;220.43;;;;;;;;;;5032058;28;20465;-62
2021/10/20 00:03:55;;;;;;;222.00;207.10;;;;;;;;;;5030956;28;20897;-63
2021/10/20 00:06:22;;;;;;;225.47;210.43;;;;;;;;;;5032365;28;20444;-62
2021/10/20 00:08:51;;;;;;;221.53;206.53;;;;;;;;;;5016165;28;20975;-62
2021/10/20 00:11:19;;;;;;;237.30;221.97;;;;;;;;;;5012792;28;20543;-62
2021/10/20 00:13:46;;;;;;;238.23;222.93;;;;;;;;;;5013652;28;20454;-62
2021/10/20 00:16:14;;;;;;;216.10;201.37;;;;;;;;;;5012512;28;20446;-62
2021/10/20 00:18:46;;;;;;;213.97;199.07;;;;;;;;;;5013701;28;20536;-62
2021/10/20 00:21:13;;;;;;;221.03;206.10;;;;;;;;;;5012401;28;20498;-67
2021/10/20 00:23:41;;;;;;;225.30;210.33;;;;;;;;;;5026950;28;20459;-62
2021/10/20 00:26:08;;;;;;;223.83;208.83;;;;;;;;;;5032418;28;20448;-63
2021/10/20 00:28:36;;;;;;;223.07;208.17;;;;;;;;;;5032024;28;20970;-62
2021/10/20 00:31:03;;;;;;;226.50;211.43;;;;;;;;;;5032363;28;21030;-63
2021/10/20 00:33:30;;;;;;;217.93;203.10;;;;;;;;;;5032512;28;20456;-62
2021/10/20 00:35:57;;;;;;;222.83;207.93;;;;;;;;;;5031842;28;20457;-69
2021/10/20 00:38:25;;;;;;;210.77;196.37;;;;;;;;;;5027934;28;20465;-62
2021/10/20 00:40:52;;;;;;;210.33;196.03;;;;;;;;;;5016585;28;20463;-66
2021/10/20 00:43:19;;;;;;;210.27;195.97;;;;;;;;;;5032204;28;20875;-62
2021/10/20 00:45:47;;;;;;;212.17;197.67;;;;;;;;;;5030944;28;21030;-67
2021/10/20 00:48:15;;;;;;;225.43;210.63;;;;;;;;;;5031675;28;20453;-61
2021/10/20 00:50:42;;;;;;;214.87;199.97;;;;;;;;;;5030427;28;20458;-65
2021/10/20 00:53:09;;;;;;;223.33;208.63;;;;;;;;;;5029078;28;20469;-65
2021/10/20 00:55:36;;;;;;;215.97;201.17;;;;;;;;;;5012656;28;20453;-64
2021/10/20 00:58:04;;;;;;;214.13;199.63;;;;;;;;;;5012090;28;20453;-62
2021/10/20 01:00:31;;;;;;;228.50;213.33;;;;;;;;;;5017514;28;20452;-65
2021/10/20 01:02:59;;;;;;;224.13;209.13;;;;;;;;;;5016180;28;20473;-65
2021/10/20 01:05:27;;;;;;;227.27;212.17;;;;;;;;;;5025867;28;20480;-70
2021/10/20 01:07:54;;;;;;;228.67;213.10;;;;;;;;;;5012605;28;20442;-71
2021/10/20 01:10:21;;;;;;;227.63;212.63;;;;;;;;;;5022448;28;20450;-64
2021/10/20 01:12:48;;;;;;;229.83;214.53;;;;;;;;;;5021384;28;20538;-64
2021/10/20 01:15:16;;;;;;;239.63;223.93;;;;;;;;;;5019894;28;20797;-64
2021/10/20 01:17:43;;;;;;;239.80;223.90;;;;;;;;;;5015273;28;20457;-63
2021/10/20 01:20:12;;;;;;;233.80;218.17;;;;;;;;;;5031927;28;20472;-68
2021/10/20 01:22:41;;;;;;;228.03;212.57;;;;;;;;;;5031697;28;20468;-64
2021/10/20 01:25:09;;;;;;;229.10;213.07;;;;;;;;;;5032981;28;20832;-63
2021/10/20 01:27:36;;;;;;;225.80;210.50;;;;;;;;;;5035301;28;20440;-63
2021/10/20 01:30:05;;;;;;;235.47;219.90;;;;;;;;;;5035575;28;20996;-62
2021/10/20 01:32:32;;;;;;;231.97;216.30;;;;;;;;;;5035541;28;20983;-64
2021/10/20 01:34:59;;;;;;;244.87;228.73;;;;;;;;;;5034652;28;20451;-66
2021/10/20 01:37:27;;;;;;;242.23;225.93;;;;;;;;;;5035383;28;20475;-63
2021/10/20 01:39:56;;;;;;;253.67;236.83;;;;;;;;;;5029365;28;20960;-63
2021/10/20 01:42:24;;;;;;;257.37;240.57;;;;;;;;;;5017756;28;20670;-63
2021/10/20 01:44:51;;;;;;;260.87;243.50;;;;;;;;;;5034475;28;21022;-66
2021/10/20 01:47:18;;;;;;;251.07;234.47;;;;;;;;;;5035128;28;20451;-71
2021/10/20 01:49:45;;;;;;;253.27;236.33;;;;;;;;;;5015669;28;20452;-65
2021/10/20 01:52:12;;;;;;;254.60;237.50;;;;;;;;;;5015511;28;20480;-63
2021/10/20 01:54:40;;;;;;;257.60;240.53;;;;;;;;;;5029416;28;20454;-65
2021/10/20 01:57:08;;;;;;;269.40;251.67;;;;;;;;;;5015289;28;20963;-63
2021/10/20 01:59:35;;;;;;;269.73;251.83;;;;;;;;;;5016633;28;20461;-67
2021/10/20 02:02:03;;;;;;;269.97;251.80;;;;;;;;;;5031505;28;20473;-62
2021/10/20 02:04:30;;;;;;;264.37;246.37;;;;;;;;;;5034314;28;20491;-67
2021/10/20 02:06:57;;;;;;;269.13;250.60;;;;;;;;;;5027559;28;20450;-63
2021/10/20 02:09:24;;;;;;;274.63;256.33;;;;;;;;;;5015219;28;20456;-67
2021/10/20 02:11:51;;;;;;;267.33;249.20;;;;;;;;;;5024944;28;20472;-63
2021/10/20 02:14:19;;;;;;;282.60;264.10;;;;;;;;;;5034767;28;20845;-66
2021/10/20 02:16:47;;;;;;;282.53;263.63;;;;;;;;;;5033963;28;20498;-66
2021/10/20 02:19:14;;;;;;;290.77;271.27;;;;;;;;;;5015386;28;20445;-63
2021/10/20 02:21:41;;;;;;;305.17;284.67;;;;;;;;;;5015938;28;20481;-63
2021/10/20 02:24:08;;;;;;;315.57;294.57;;;;;;;;;;5027521;28;20448;-62
2021/10/20 02:26:35;;;;;;;309.03;288.20;;;;;;;;;;5035714;28;20452;-63
2021/10/20 02:29:02;;;;;;;322.20;300.20;;;;;;;;;;5035096;28;21098;-66
2021/10/20 02:31:31;;;;;;;310.47;288.67;;;;;;;;;;5034436;28;20504;-63
2021/10/20 02:33:58;;;;;;;322.03;299.43;;;;;;;;;;5032986;28;20452;-73
2021/10/20 02:36:25;;;;;;;315.00;293.03;;;;;;;;;;5034523;28;20452;-64
2021/10/20 02:38:52;;;;;;;315.40;293.17;;;;;;;;;;5036899;28;20467;-63
2021/10/20 02:41:19;;;;;;;323.60;301.30;;;;;;;;;;5022135;28;20485;-63
2021/10/20 02:43:46;;;;;;;336.07;312.57;;;;;;;;;;5019095;28;20455;-63
2021/10/20 02:46:13;;;;;;;316.50;295.20;;;;;;;;;;5034093;28;20481;-63
2021/10/20 02:48:44;;;;;;;319.77;298.63;;;;;;;;;;5039689;28;20835;-62
2021/10/20 02:51:11;;;;;;;328.80;307.30;;;;;;;;;;5034758;28;20473;-66
2021/10/20 02:53:39;;;;;;;338.47;315.50;;;;;;;;;;5034583;28;20986;-68
2021/10/20 02:56:06;;;;;;;324.83;302.67;;;;;;;;;;5033805;28;20445;-62
2021/10/20 02:58:33;;;;;;;314.53;292.00;;;;;;;;;;5034509;28;20809;-66
2021/10/20 03:01:00;;;;;;;314.77;293.07;;;;;;;;;;5031395;28;20449;-63
2021/10/20 03:03:27;;;;;;;326.57;304.17;;;;;;;;;;5034904;28;20451;-65
2021/10/20 03:05:56;;;;;;;320.07;297.50;;;;;;;;;;5028206;28;20481;-62
2021/10/20 03:08:23;;;;;;;334.80;311.93;;;;;;;;;;5022635;28;20460;-62
2021/10/20 03:10:50;;;;;;;342.37;319.33;;;;;;;;;;5025554;28;20453;-67
2021/10/20 03:13:17;;;;;;;339.60;316.20;;;;;;;;;;5028212;28;20449;-62
2021/10/20 03:15:44;;;;;;;349.90;326.60;;;;;;;;;;5023482;28;20461;-63
2021/10/20 03:18:11;;;;;;;347.23;323.30;;;;;;;;;;5038354;28;20448;-62
2021/10/20 03:20:38;;;;;;;345.80;322.07;;;;;;;;;;5035984;28;20453;-62
2021/10/20 03:23:07;;;;;;;360.23;336.00;;;;;;;;;;5038314;28;20465;-65
2021/10/20 03:25:34;;;;;;;371.33;345.70;;;;;;;;;;5035718;28;20484;-63
2021/10/20 03:28:01;;;;;;;368.73;343.30;;;;;;;;;;5033972;28;20452;-62
2021/10/20 03:30:28;;;;;;;376.23;350.43;;;;;;;;;;5032206;28;20455;-63
2021/10/20 03:32:55;;;;;;;363.70;338.87;;;;;;;;;;5026646;28;20469;-62
2021/10/20 03:35:22;;;;;;;362.50;337.87;;;;;;;;;;5014279;28;20450;-63
2021/10/20 03:37:49;;;;;;;388.60;361.90;;;;;;;;;;5014597;28;20495;-62
2021/10/20 03:40:18;;;;;;;401.37;374.17;;;;;;;;;;5023624;28;20448;-63
2021/10/20 03:42:45;;;;;;;389.63;362.83;;;;;;;;;;5033369;28;20491;-62
2021/10/20 03:45:12;;;;;;;388.63;361.90;;;;;;;;;;5021073;28;20493;-66
2021/10/20 03:47:40;;;;;;;383.80;358.50;;;;;;;;;;5012033;28;20828;-62
2021/10/20 03:50:08;;;;;;;393.97;367.80;;;;;;;;;;5014893;28;20956;-62
2021/10/20 03:52:35;;;;;;;392.43;366.17;;;;;;;;;;5023265;28;20499;-62
2021/10/20 03:55:02;;;;;;;408.20;381.20;;;;;;;;;;5029964;28;20445;-63
2021/10/20 03:57:35;;;;;;;407.23;379.73;;;;;;;;;;5012563;28;20461;-62
2021/10/20 04:00:02;;;;;;;407.47;380.67;;;;;;;;;;5027079;28;20809;-63
2021/10/20 04:02:29;;;;;;;413.03;385.83;;;;;;;;;;5032645;28;20479;-64
2021/10/20 04:04:56;;;;;;;436.73;408.40;;;;;;;;;;5030487;28;20449;-63
2021/10/20 04:07:23;;;;;;;412.03;384.83;;;;;;;;;;5013088;28;20454;-63
2021/10/20 04:09:50;;;;;;;402.63;374.37;;;;;;;;;;5026068;28;20449;-63
2021/10/20 04:12:17;;;;;;;404.73;375.93;;;;;;;;;;5032985;28;20460;-63
2021/10/20 04:14:46;;;;;;;394.77;367.07;;;;;;;;;;5017087;28;20867;-67
2021/10/20 04:17:13;;;;;;;379.03;352.27;;;;;;;;;;5031972;28;20827;-64
2021/10/20 04:19:40;;;;;;;393.10;365.20;;;;;;;;;;5024044;28;20827;-63
2021/10/20 04:22:08;;;;;;;418.23;388.43;;;;;;;;;;5012985;28;20473;-63
2021/10/20 04:24:35;;;;;;;419.13;390.87;;;;;;;;;;5014629;28;21217;-63
2021/10/20 04:27:02;;;;;;;418.67;389.70;;;;;;;;;;5022945;28;20516;-64
2021/10/20 04:29:29;;;;;;;397.70;370.40;;;;;;;;;;5022857;28;20451;-65
2021/10/20 04:31:58;;;;;;;397.30;369.63;;;;;;;;;;5031606;28;20460;-64
2021/10/20 04:34:25;;;;;;;439.67;410.00;;;;;;;;;;5031934;28;20449;-64
2021/10/20 04:36:52;;;;;;;400.73;373.10;;;;;;;;;;5016124;28;20453;-63
2021/10/20 04:39:19;;;;;;;398.20;370.57;;;;;;;;;;5025357;28;20452;-63
2021/10/20 04:41:46;;;;;;;409.37;380.77;;;;;;;;;;5047011;22;21675;-67
2021/10/20 04:44:13;;;;;;;437.93;408.63;;;;;;;;;;5028498;28;20496;-67
2021/10/20 04:46:40;;;;;;;411.03;382.10;;;;;;;;;;5031110;28;20560;-67
2021/10/20 04:49:09;;;;;;;408.90;379.70;;;;;;;;;;5042780;28;20463;-66
2021/10/20 04:51:36;;;;;;;407.43;378.13;;;;;;;;;;5052014;28;20451;-66
2021/10/20 04:54:03;;;;;;;404.60;375.40;;;;;;;;;;5058839;28;20450;-67
2021/10/20 04:56:30;;;;;;;413.40;384.27;;;;;;;;;;5058097;28;20448;-67
2021/10/20 04:58:57;;;;;;;416.33;387.03;;;;;;;;;;5051294;28;20458;-67
2021/10/20 05:01:24;;;;;;;405.27;376.80;;;;;;;;;;5051058;28;20448;-67
2021/10/20 05:03:51;;;;;;;420.20;390.10;;;;;;;;;;5054348;28;20823;-67
2021/10/20 05:06:20;;;;;;;408.80;379.87;;;;;;;;;;5051168;28;20509;-67
2021/10/20 05:08:47;;;;;;;412.37;384.23;;;;;;;;;;5050993;28;20958;-67
2021/10/20 05:11:14;;;;;;;402.83;374.33;;;;;;;;;;5051536;28;20454;-66
2021/10/20 05:13:41;;;;;;;522.40;476.87;;;;;;;;;;5051561;28;20468;-67
2021/10/20 05:16:08;;;;;;;427.43;399.40;;;;;;;;;;5050587;28;20451;-66
2021/10/20 05:18:35;;;;;;;403.00;375.00;;;;;;;;;;5051496;28;20453;-67
2021/10/20 05:21:02;;;;;;;438.33;408.70;;;;;;;;;;5050797;28;20455;-67
2021/10/20 05:23:31;;;;;;;431.30;402.40;;;;;;;;;;5053071;28;20464;-67
2021/10/20 05:25:58;;;;;;;438.57;407.67;;;;;;;;;;5070876;28;20490;-67
2021/10/20 05:28:29;;;;;;;461.27;430.43;;;;;;;;;;5078890;28;20447;-65
2021/10/20 05:30:57;;;;;;;447.70;417.20;;;;;;;;;;5059701;28;20459;-64
2021/10/20 05:33:24;;;;;;;431.33;401.63;;;;;;;;;;5051281;28;20835;-64
2021/10/20 05:35:51;;;;;;;433.10;402.87;;;;;;;;;;5070993;28;20443;-65
2021/10/20 05:38:18;;;;;;;446.40;416.13;;;;;;;;;;5070599;28;20439;-64
2021/10/20 05:40:46;;;;;;;467.33;436.40;;;;;;;;;;5060724;28;20451;-65
2021/10/20 05:43:13;;;;;;;440.93;411.03;;;;;;;;;;5070847;28;20478;-64
2021/10/20 05:45:40;;;;;;;451.50;420.90;;;;;;;;;;5069837;28;20483;-64
2021/10/20 05:48:08;;;;;;;442.53;413.03;;;;;;;;;;5070732;28;20446;-64
2021/10/20 05:50:35;;;;;;;390.67;362.67;;;;;;;;;;5069722;28;20462;-67
2021/10/20 05:53:02;;;;;;;391.53;363.80;;;;;;;;;;5067578;28;20478;-67
2021/10/20 05:55:29;;;;;;;466.43;435.03;;;;;;;;;;5046171;28;20970;-68
2021/10/20 05:57:57;;;;;;;519.23;485.57;;;;;;;;;;5051232;28;20448;-64
2021/10/20 06:00:24;;;;;;;578.93;543.47;;;;;;;;;;5040555;28;20468;-64
2021/10/20 06:02:52;;;;;;;581.87;543.47;;;;;;;;;;5041566;28;20474;-64
2021/10/20 06:05:19;;;;;;;591.10;553.73;;;;;;;;;;5056969;28;20446;-63
2021/10/20 06:07:46;;;;;;;590.67;553.90;;;;;;;;;;5050837;28;20948;-63
2021/10/20 06:10:14;;;;;;;572.90;536.10;;;;;;;;;;5069963;28;20900;-68
2021/10/20 06:12:42;;;;;;;527.27;490.73;;;;;;;;;;5070538;28;20467;-66
2021/10/20 06:15:11;;;;;;;558.93;524.53;;;;;;;;;;5054991;28;20451;-64
2021/10/20 06:17:38;;;;;;;526.10;492.60;;;;;;;;;;5054960;28;20439;-65
2021/10/20 06:20:06;;;;;;;491.00;457.57;;;;;;;;;;5072713;28;20458;-64
2021/10/20 06:22:34;;;;;;;484.30;453.87;;;;;;;;;;5072033;28;20471;-66
2021/10/20 06:25:01;;;;;;;489.40;458.77;;;;;;;;;;5071237;28;20450;-63
2021/10/20 06:27:28;;;;;;;470.80;438.23;;;;;;;;;;5076130;28;20487;-66
2021/10/20 06:29:55;;;;;;;485.17;451.30;;;;;;;;;;5060285;28;20462;-63
2021/10/20 06:32:24;;;;;;;458.27;426.53;;;;;;;;;;5055233;28;20464;-67
2021/10/20 06:34:51;;;;;;;468.00;436.30;;;;;;;;;;5054206;28;20447;-66
2021/10/20 06:37:18;;;;;;;448.43;418.93;;;;;;;;;;5055355;28;20947;-67
2021/10/20 06:39:45;;;;;;;455.47;425.90;;;;;;;;;;5065643;28;20454;-68
2021/10/20 06:42:12;;;;;;;452.23;421.27;;;;;;;;;;5053163;28;20487;-63
2021/10/20 06:44:39;;;;;;;449.93;419.60;;;;;;;;;;5054257;28;20444;-71
2021/10/20 06:47:06;;;;;;;469.73;439.03;;;;;;;;;;5053393;28;20484;-68
2021/10/20 06:49:35;;;;;;;453.83;425.33;;;;;;;;;;5055985;28;20448;-68
2021/10/20 06:52:02;;;;;;;463.63;433.00;;;;;;;;;;5034224;28;20475;-68
2021/10/20 06:54:29;;;;;;;459.70;430.20;;;;;;;;;;5052262;28;20467;-67
2021/10/20 06:56:57;;;;;;;462.50;432.67;;;;;;;;;;5052961;28;20444;-68
2021/10/20 06:59:24;;;;;;;455.07;427.50;;;;;;;;;;5053898;28;20447;-67
2021/10/20 07:01:51;;;;;;;449.67;421.67;;;;;;;;;;5054949;28;20472;-66
2021/10/20 07:04:19;;;;;;;388.57;365.17;;;;;;;;;;5053874;28;20456;-66
2021/10/20 07:06:50;;;;;;;439.20;413.90;;;;;;;;;;5053727;28;20482;-67
2021/10/20 07:09:17;;;;;;;433.30;408.97;;;;;;;;;;5050041;28;20466;-67
2021/10/20 07:11:44;;;;;;;429.37;401.10;;;;;;;;;;5056156;28;20483;-65
2021/10/20 07:14:11;;;;;;;418.13;388.67;;;;;;;;;;5066823;28;20451;-70
2021/10/20 07:16:39;;;;;;;434.33;405.37;;;;;;;;;;5074903;28;20449;-65
2021/10/20 07:19:07;;;;;;;413.00;386.10;;;;;;;;;;5061286;28;20821;-63
2021/10/20 07:21:35;;;;;;;441.03;414.03;;;;;;;;;;5052858;28;20580;-60
2021/10/20 07:24:03;;;;;;;449.30;420.10;;;;;;;;;;5058377;28;20487;-61
2021/10/20 07:26:30;;;;;;;407.90;380.90;;;;;;;;;;5053079;28;20494;-62
2021/10/20 07:28:57;;;;;;;405.87;380.37;;;;;;;;;;5062171;28;20443;-61
2021/10/20 07:31:29;;;;;;;404.80;380.43;;;;;;;;;;5073220;28;20450;-64
2021/10/20 07:33:56;;;;;;;404.83;380.83;;;;;;;;;;5074220;28;20451;-63
2021/10/20 07:36:23;;;;;;;391.53;366.47;;;;;;;;;;5072742;28;20949;-62
2021/10/20 07:38:51;;;;;;;412.93;390.60;;;;;;;;;;5073519;28;20957;-64
2021/10/20 07:41:19;;;;;;;382.30;358.40;;;;;;;;;;5056164;28;20493;-65
2021/10/20 07:43:46;;;;;;;429.60;405.90;;;;;;;;;;5050413;28;20947;-64
2021/10/20 07:46:13;;;;;;;402.43;380.17;;;;;;;;;;5048068;28;20864;-64
2021/10/20 07:48:40;;;;;;;401.70;378.67;;;;;;;;;;5049238;28;20448;-64
2021/10/20 07:51:08;;;;;;;394.13;372.23;;;;;;;;;;5052871;28;20478;-64
2021/10/20 07:53:35;;;;;;;378.07;356.03;;;;;;;;;;5052624;28;20832;-64
2021/10/20 07:56:02;;;;;;;359.07;337.53;;;;;;;;;;5056984;28;20442;-64
2021/10/20 07:58:30;;;;;;;381.43;361.33;;;;;;;;;;5072757;28;20450;-64
2021/10/20 08:00:57;;;;;;;369.90;349.90;;;;;;;;;;5057230;28;20454;-64
2021/10/20 08:03:24;;;;;;;348.57;328.77;;;;;;;;;;5052635;28;21092;-65
2021/10/20 08:05:51;;;;;;;359.57;339.17;;;;;;;;;;5069832;28;20535;-64
2021/10/20 08:08:18;;;;;;;354.57;335.53;;;;;;;;;;5072314;28;20498;-65
2021/10/20 08:10:46;;;;;;;354.10;335.40;;;;;;;;;;5072046;28;20954;-65
2021/10/20 08:13:13;;;;;;;348.13;329.63;;;;;;;;;;5072370;28;20466;-65
2021/10/20 08:15:42;;;;;;;346.30;327.93;;;;;;;;;;5063607;28;20458;-65
2021/10/20 08:18:09;;;;;;;338.97;321.13;;;;;;;;;;5072396;28;20444;-65
2021/10/20 08:20:37;;;;;;;347.30;329.93;;;;;;;;;;5057425;28;20451;-65
2021/10/20 08:23:05;;;;;;;352.10;334.23;;;;;;;;;;5052413;28;20472;-64
2021/10/20 08:25:34;;;;;;;343.87;326.77;;;;;;;;;;5055249;28;20452;-65
2021/10/20 08:28:02;;;;;;;338.00;320.80;;;;;;;;;;5052365;28;20507;-65
2021/10/20 08:30:29;;;;;;;343.30;326.70;;;;;;;;;;5051536;28;20543;-64
2021/10/20 08:32:58;;;;;;;345.53;328.80;;;;;;;;;;5052260;28;20896;-64
2021/10/20 08:35:25;;;;;;;334.73;317.80;;;;;;;;;;5060453;28;20481;-65
2021/10/20 08:37:56;;;;;;;357.40;341.17;;;;;;;;;;5072241;28;20446;-65
2021/10/20 08:40:25;;;;;;;339.13;323.13;;;;;;;;;;5062179;28;20528;-66
2021/10/20 08:42:52;;;;;;;332.73;316.70;;;;;;;;;;5051788;28;20526;-65
2021/10/20 08:45:19;;;;;;;329.63;314.50;;;;;;;;;;5059209;28;20450;-65
2021/10/20 08:47:47;;;;;;;331.47;316.17;;;;;;;;;;5071457;28;20501;-65
2021/10/20 08:50:19;;;;;;;316.50;300.90;;;;;;;;;;5059522;28;20479;-66
2021/10/20 08:52:47;;;;;;;370.73;354.67;;;;;;;;;;5052510;28;20993;-64
2021/10/20 08:55:16;;;;;;;379.83;363.73;;;;;;;;;;5062887;28;20457;-65
2021/10/20 08:57:43;;;;;;;381.50;365.50;;;;;;;;;;5071548;28;20949;-64
2021/10/20 09:00:11;;;;;;;314.47;299.97;;;;;;;;;;5067913;28;20447;-64
2021/10/20 09:02:40;;;;;;;345.80;331.13;;;;;;;;;;5052052;28;20468;-66
2021/10/20 09:05:08;;;;;;;351.00;336.60;;;;;;;;;;5052011;28;20546;-64
2021/10/20 09:07:37;;;;;;;368.33;353.40;;;;;;;;;;5051553;28;20482;-65
2021/10/20 09:10:04;;;;;;;348.27;333.97;;;;;;;;;;5051873;28;20463;-65
2021/10/20 09:12:37;;;;;;;319.63;305.93;;;;;;;;;;5051500;28;20468;-64
2021/10/20 09:15:04;;;;;;;365.03;349.93;;;;;;;;;;5052398;28;20444;-65
2021/10/20 09:17:43;;;;;;;336.33;321.77;;;;;;;;;;5052305;28;20754;-64
2021/10/20 09:20:15;;;;;;;345.70;331.27;;;;;;;;;;5061002;28;20443;-66
2021/10/20 09:22:53;;;;;;;347.60;332.80;;;;;;;;;;5071191;28;20474;-64
2021/10/20 09:25:20;;;;;;;432.23;407.63;;;;;;;;;;5060426;28;20479;-68
2021/10/20 09:27:47;;;;;;;431.87;404.97;;;;;;;;;;5051667;28;20487;-64
2021/10/20 09:30:15;;;;;;;435.03;407.00;;;;;;;;;;5052375;28;20454;-66
2021/10/20 09:32:42;;;;;;;466.00;436.47;;;;;;;;;;5051152;28;20895;-66
2021/10/20 09:35:10;;;;;;;452.03;422.03;;;;;;;;;;5053220;28;20458;-64
2021/10/20 09:37:38;;;;;;;469.20;439.13;;;;;;;;;;5071450;28;20497;-65
2021/10/20 09:40:08;;;;;;;463.03;432.53;;;;;;;;;;5070927;28;20813;-66
2021/10/20 09:42:43;;;;;;;464.83;432.97;;;;;;;;;;5070969;28;20486;-66
2021/10/20 09:45:10;;;;;;;466.97;434.90;;;;;;;;;;5071086;28;20439;-65
2021/10/20 09:47:39;;;;;;;469.33;435.70;;;;;;;;;;5075228;28;20485;-66
2021/10/20 09:50:07;;;;;;;475.43;442.53;;;;;;;;;;5066726;28;20509;-64
2021/10/20 09:52:44;;;;;;;478.43;444.33;;;;;;;;;;5068774;28;20464;-65
2021/10/20 09:55:15;;;;;;;466.37;433.67;;;;;;;;;;5054150;28;20988;-68
2021/10/20 09:57:42;;;;;;;464.53;433.63;;;;;;;;;;5055054;28;20466;-67
2021/10/20 10:00:10;;;;;;;495.33;462.23;;;;;;;;;;5055352;28;20448;-66
2021/10/20 10:02:37;;;;;;;480.73;448.87;;;;;;;;;;5071978;28;21076;-66
2021/10/20 10:05:05;;;;;;;461.43;431.83;;;;;;;;;;5061127;28;20451;-65
2021/10/20 10:07:32;;;;;;;504.90;472.27;;;;;;;;;;5054814;28;20486;-65
2021/10/20 10:09:59;;;;;;;488.67;456.23;;;;;;;;;;5054937;28;20474;-66
2021/10/20 10:12:29;;;;;;;449.73;419.90;;;;;;;;;;5057950;28;20471;-65
2021/10/20 10:14:58;;;;;;;439.73;410.50;;;;;;;;;;5051376;28;20818;-68
2021/10/20 10:17:26;;;;;;;441.63;410.97;;;;;;;;;;5045275;28;20935;-67
2021/10/20 10:19:53;;;;;;;452.67;421.43;;;;;;;;;;5047131;28;20466;-65
2021/10/20 10:22:21;;;;;;;456.30;426.30;;;;;;;;;;5055553;28;20464;-65
2021/10/20 10:24:48;;;;;;;436.27;406.87;;;;;;;;;;5054644;28;20454;-65
2021/10/20 10:27:15;;;;;;;426.50;398.40;;;;;;;;;;5072144;28;20562;-67
2021/10/20 10:29:55;;;;;;;456.33;425.37;;;;;;;;;;5072661;28;20447;-65
2021/10/20 10:32:25;;;;;;;481.20;448.80;;;;;;;;;;5054929;28;20475;-65
2021/10/20 10:34:53;;;;;;;472.00;439.00;;;;;;;;;;5055074;28;20452;-65
2021/10/20 10:37:24;;;;;;;484.57;451.00;;;;;;;;;;5064138;28;20443;-68
2021/10/20 10:39:51;;;;;;;483.10;449.30;;;;;;;;;;5072811;28;20454;-65
2021/10/20 10:42:18;;;;;;;494.97;461.23;;;;;;;;;;5061676;22;20494;-70
2021/10/20 10:44:47;;;;;;;454.20;426.80;;;;;;;;;;5073237;28;20459;-66
2021/10/20 10:47:24;;;;;;;447.23;416.73;;;;;;;;;;5076760;28;20981;-67
2021/10/20 10:49:56;;;;;;;450.20;418.37;;;;;;;;;;5071654;28;20792;-69
2021/10/20 10:52:34;;;;;;;418.77;389.77;;;;;;;;;;5058854;28;20562;-76
2021/10/20 10:55:09;;;;;;;361.53;337.37;;;;;;;;;;5064880;28;20748;-69
2021/10/20 10:57:41;;;;;;;370.13;344.43;;;;;;;;;;5071643;28;21008;-73
2021/10/20 11:00:10;;;;;;;439.17;407.07;;;;;;;;;;5073914;28;20457;-71
2021/10/20 11:02:40;;;;;;;503.60;467.60;;;;;;;;;;5071125;28;20471;-70
2021/10/20 11:05:07;;;;;;;444.23;410.63;;;;;;;;;;5065086;28;20474;-71
2021/10/20 11:07:35;;;;;;;433.27;403.70;;;;;;;;;;5054394;28;20491;-70
2021/10/20 11:10:03;;;;;;;537.40;497.10;;;;;;;;;;5056662;28;20451;-66
2021/10/20 11:12:30;;;;;;;416.53;388.63;;;;;;;;;;5063088;28;20472;-76
2021/10/20 11:14:58;;;;;;;419.87;391.37;;;;;;;;;;5056592;28;20459;-68
2021/10/20 11:17:25;;;;;;;441.97;413.27;;;;;;;;;;5056055;28;20471;-70
2021/10/20 11:19:54;;;;;;;447.17;418.27;;;;;;;;;;5070106;28;20451;-70
2021/10/20 11:22:22;;;;;;;453.23;423.50;;;;;;;;;;5073180;28;20471;-70
2021/10/20 11:24:52;;;;;;;457.17;427.67;;;;;;;;;;5071640;28;20455;-72
2021/10/20 11:27:22;;;;;;;474.87;444.37;;;;;;;;;;5065651;28;20444;-68
2021/10/20 11:29:50;;;;;;;451.43;421.23;;;;;;;;;;5054374;28;20452;-67
2021/10/20 11:32:18;;;;;;;465.13;434.73;;;;;;;;;;5052911;28;20559;-67
2021/10/20 11:34:46;;;;;;;464.33;434.73;;;;;;;;;;5058035;28;20451;-67
2021/10/20 11:37:15;;;;;;;543.27;503.80;;;;;;;;;;5067037;28;20447;-67
2021/10/20 11:39:43;;;;;;;546.03;504.97;;;;;;;;;;5053580;28;20443;-73
2021/10/20 11:42:12;;;;;;;535.23;495.33;;;;;;;;;;5061011;28;20462;-72
2021/10/20 11:44:40;;;;;;;546.27;505.97;;;;;;;;;;5053485;28;20448;-66
2021/10/20 11:47:08;;;;;;;546.77;505.17;;;;;;;;;;5062888;28;20447;-71
2021/10/20 11:49:35;;;;;;;485.50;454.60;;;;;;;;;;5070173;28;20459;-68
2021/10/20 11:52:05;;;;;;;502.37;465.83;;;;;;;;;;5072808;28;20449;-67
2021/10/20 11:54:33;;;;;;;480.00;445.87;;;;;;;;;;5072828;28;20455;-67
2021/10/20 11:57:04;;;;;;;492.17;456.87;;;;;;;;;;5068762;28;21013;-67
2021/10/20 11:59:31;;;;;;;520.40;483.70;;;;;;;;;;5072880;28;20842;-72
2021/10/20 12:02:00;;;;;;;498.60;465.13;;;;;;;;;;5072804;28;20524;-72
2021/10/20 12:04:27;;;;;;;488.40;458.20;;;;;;;;;;5067671;28;20482;-67
2021/10/20 12:06:55;;;;;;;490.07;459.20;;;;;;;;;;5066948;28;20555;-66
2021/10/20 12:09:23;;;;;;;468.70;439.37;;;;;;;;;;5072424;28;20482;-70
2021/10/20 12:11:52;;;;;;;434.90;407.17;;;;;;;;;;5060971;28;20452;-67
2021/10/20 12:14:22;;;;;;;472.80;436.00;;;;;;;;;;5058895;28;21029;-72
2021/10/20 12:16:50;;;;;;;464.90;427.87;;;;;;;;;;5053610;28;20454;-74
2021/10/20 12:19:21;;;;;;;435.67;401.57;;;;;;;;;;5053670;28;20455;-76
2021/10/20 12:21:48;;;;;;;420.70;386.07;;;;;;;;;;5053525;28;20509;-72
2021/10/20 12:24:18;;;;;;;445.03;408.70;;;;;;;;;;5053740;28;21130;-70
2021/10/20 12:26:45;;;;;;;467.23;431.30;;;;;;;;;;5053242;28;20460;-72
2021/10/20 12:29:14;;;;;;;450.93;415.67;;;;;;;;;;5065637;28;20479;-71
2021/10/20 12:31:42;;;;;;;418.27;384.67;;;;;;;;;;5077185;28;20447;-73
2021/10/20 12:34:10;;;;;;;431.30;397.70;;;;;;;;;;5068006;28;20471;-76
2021/10/20 12:36:37;;;;;;;448.27;414.47;;;;;;;;;;5074507;28;20447;-72
2021/10/20 12:39:05;;;;;;;455.17;421.97;;;;;;;;;;5073342;28;20473;-77
2021/10/20 12:41:33;;;;;;;318.77;296.27;;;;;;;;;;5075729;28;20478;-74
2021/10/20 12:44:02;;;;;;;291.70;270.50;;;;;;;;;;5071650;28;20478;-75
2021/10/20 12:46:31;;;;;;;283.77;262.70;;;;;;;;;;5071883;28;20451;-68
2021/10/20 12:48:59;;;;;;;286.13;266.03;;;;;;;;;;5071938;28;20894;-74
2021/10/20 12:51:29;;;;;;;313.57;290.73;;;;;;;;;;5071379;28;20443;-72
2021/10/20 12:53:58;;;;;;;362.90;338.17;;;;;;;;;;5071059;28;20466;-70
2021/10/20 12:56:25;;;;;;;354.40;328.30;;;;;;;;;;5071057;28;20562;-67
2021/10/20 12:59:06;;;;;;;386.90;359.10;;;;;;;;;;5071273;28;20447;-68
2021/10/20 13:01:34;;;;;;;376.20;349.00;;;;;;;;;;5073952;28;20518;-62
2021/10/20 13:04:02;;;;;;;389.07;362.83;;;;;;;;;;5074842;28;20471;-69
2021/10/20 13:06:29;;;;;;;381.93;354.80;;;;;;;;;;5072450;28;20984;-64
2021/10/20 13:08:56;;;;;;;408.77;382.27;;;;;;;;;;5054989;28;20475;-64
2021/10/20 13:11:23;;;;;;;390.40;363.10;;;;;;;;;;5055126;28;20454;-64
2021/10/20 13:13:50;;;;;;;421.63;393.47;;;;;;;;;;5055520;28;20463;-64
2021/10/20 13:16:17;;;;;;;419.70;390.87;;;;;;;;;;5067524;28;20450;-64
2021/10/20 13:18:46;;;;;;;437.87;407.87;;;;;;;;;;5066679;28;20935;-64
2021/10/20 13:21:13;;;;;;;446.93;416.33;;;;;;;;;;5057938;28;20454;-64
2021/10/20 13:23:40;;;;;;;461.47;429.60;;;;;;;;;;5071864;28;20477;-65
2021/10/20 13:26:07;;;;;;;434.87;405.60;;;;;;;;;;5075540;28;20455;-63
2021/10/20 13:28:35;;;;;;;433.80;404.13;;;;;;;;;;5075828;28;20849;-64
2021/10/20 13:31:02;;;;;;;434.43;406.03;;;;;;;;;;5070383;28;20512;-67
2021/10/20 13:33:30;;;;;;;417.80;389.43;;;;;;;;;;5072094;28;20480;-63
2021/10/20 13:35:58;;;;;;;407.07;377.83;;;;;;;;;;5074700;28;20473;-65
2021/10/20 13:38:26;;;;;;;421.87;393.43;;;;;;;;;;5075064;28;20504;-68
2021/10/20 13:40:54;;;;;;;415.40;386.57;;;;;;;;;;5073314;28;20512;-64
2021/10/20 13:43:23;;;;;;;446.93;418.33;;;;;;;;;;5067667;28;20487;-64
2021/10/20 13:45:50;;;;;;;427.20;398.47;;;;;;;;;;5074895;28;20549;-65
2021/10/20 13:48:17;;;;;;;410.10;382.97;;;;;;;;;;5066859;28;20486;-65
2021/10/20 13:50:45;;;;;;;407.33;380.00;;;;;;;;;;5071697;28;20457;-64
2021/10/20 13:53:14;;;;;;;407.63;379.23;;;;;;;;;;5073745;28;20477;-63
2021/10/20 13:55:41;;;;;;;422.13;393.80;;;;;;;;;;5074003;28;20446;-67